createdAt,value
2023-03-12T00:02:09.457Z,3.30
2023-03-12T00:04:36.055Z,3.63
2023-03-12T00:07:05.713Z,6.40
2023-03-12T00:09:37.235Z,4.20
2023-03-12T00:12:05.136Z,5.20
2023-03-12T00:14:32.734Z,21.93
2023-03-12T00:16:59.215Z,10.07
2023-03-12T00:19:25.989Z,5.33
2023-03-12T00:21:52.465Z,6.57
2023-03-12T00:24:18.986Z,7.03
2023-03-12T00:26:45.482Z,8.43
2023-03-12T00:29:12.003Z,7.33
2023-03-12T00:31:38.492Z,10.63
2023-03-12T00:34:05.004Z,9.27
2023-03-12T00:36:32.333Z,4.00
2023-03-12T00:39:00.601Z,5.23
2023-03-12T00:41:28.660Z,5.00
2023-03-12T00:43:55.290Z,5.67
2023-03-12T00:46:22.225Z,3.33
2023-03-12T00:48:48.836Z,3.00
2023-03-12T00:51:15.616Z,5.53
2023-03-12T00:53:42.198Z,7.43
2023-03-12T00:56:08.888Z,4.53
2023-03-12T00:58:35.395Z,5.53
2023-03-12T01:01:02.876Z,10.80
2023-03-12T01:03:29.403Z,8.57
2023-03-12T01:05:55.869Z,5.60
2023-03-12T01:08:23.510Z,4.83
2023-03-12T01:10:50.994Z,4.13
2023-03-12T01:13:17.537Z,4.03
2023-03-12T01:15:44.050Z,6.27
2023-03-12T01:18:10.541Z,3.13
2023-03-12T01:20:37.324Z,6.57
2023-03-12T01:23:04.042Z,3.43
2023-03-12T01:25:30.584Z,8.50
2023-03-12T01:27:57.058Z,5.93
2023-03-12T01:30:23.562Z,3.50
2023-03-12T01:32:51.950Z,3.73
2023-03-12T01:35:18.937Z,2.20
2023-03-12T01:37:45.456Z,7.07
2023-03-12T01:40:20.131Z,3.60
2023-03-12T01:42:57.618Z,3.17
2023-03-12T01:46:45.690Z,3.23
2023-03-12T01:49:34.153Z,5.47
2023-03-12T01:52:10.461Z,6.10
2023-03-12T01:55:09.520Z,5.63
2023-03-12T01:57:57.888Z,1.97
2023-03-12T02:00:26.854Z,7.20
2023-03-12T02:02:59.453Z,3.80
2023-03-12T02:05:42.759Z,3.70
2023-03-12T02:08:14.137Z,3.67
2023-03-12T02:10:40.739Z,2.80
2023-03-12T02:13:07.502Z,3.40
2023-03-12T02:15:36.535Z,8.57
2023-03-12T02:18:05.256Z,2.87
2023-03-12T02:22:24.372Z,4.20
2023-03-12T02:26:07.562Z,4.70
2023-03-12T02:28:41.915Z,3.70
2023-03-12T02:31:11.990Z,5.37
2023-03-12T02:33:38.744Z,4.53
2023-03-12T02:36:05.680Z,4.63
2023-03-12T02:38:48.164Z,4.60
2023-03-12T02:41:29.915Z,4.07
2023-03-12T02:44:57.524Z,4.20
2023-03-12T02:47:24.026Z,4.53
2023-03-12T02:49:51.892Z,3.67
2023-03-12T02:52:18.397Z,7.03
2023-03-12T02:54:44.853Z,3.63
2023-03-12T02:57:11.316Z,4.73
2023-03-12T02:59:37.811Z,4.23
2023-03-12T03:02:04.425Z,5.77
2023-03-12T03:04:33.336Z,5.40
2023-03-12T03:07:00.377Z,5.63
2023-03-12T03:09:26.846Z,2.97
2023-03-12T03:11:53.355Z,4.07
2023-03-12T03:14:19.906Z,3.67
2023-03-12T03:16:46.380Z,4.63
2023-03-12T03:19:13.002Z,4.63
2023-03-12T03:21:39.547Z,4.00
2023-03-12T03:24:06.560Z,5.00
2023-03-12T03:26:33.053Z,3.87
2023-03-12T03:28:59.645Z,3.93
2023-03-12T03:31:26.226Z,10.73
2023-03-12T03:33:52.854Z,3.43
2023-03-12T03:36:19.335Z,3.97
2023-03-12T03:38:48.599Z,5.10
2023-03-12T03:41:20.123Z,5.40
2023-03-12T03:43:47.137Z,4.80
2023-03-12T03:46:14.859Z,2.67
2023-03-12T03:48:41.665Z,3.83
2023-03-12T03:51:10.862Z,6.40
2023-03-12T03:53:37.358Z,6.50
2023-03-12T03:56:11.288Z,4.40
2023-03-12T03:58:38.190Z,3.20
2023-03-12T04:01:05.531Z,2.70
2023-03-12T04:03:32.850Z,3.67
2023-03-12T04:06:03.107Z,3.93
2023-03-12T04:08:29.817Z,6.13
2023-03-12T04:10:56.288Z,6.00
2023-03-12T04:13:22.772Z,4.07
2023-03-12T04:15:53.069Z,4.37
2023-03-12T04:18:19.677Z,3.77
2023-03-12T04:20:46.344Z,5.63
2023-03-12T04:23:12.810Z,6.70
2023-03-12T04:25:39.494Z,6.23
2023-03-12T04:28:06.696Z,4.17
2023-03-12T04:30:33.254Z,5.70
2023-03-12T04:32:59.737Z,4.37
2023-03-12T04:35:26.211Z,3.80
2023-03-12T04:37:52.699Z,3.93
2023-03-12T04:40:19.278Z,7.10
2023-03-12T04:42:45.972Z,3.97
2023-03-12T04:45:12.549Z,5.57
2023-03-12T04:47:39.136Z,6.20
2023-03-12T04:50:06.735Z,3.90
2023-03-12T04:52:33.257Z,2.97
2023-03-12T04:54:59.783Z,4.50
2023-03-12T04:57:26.477Z,3.87
2023-03-12T04:59:53.349Z,8.47
2023-03-12T05:02:19.839Z,4.20
2023-03-12T05:04:46.305Z,2.80
2023-03-12T05:07:12.775Z,4.00
2023-03-12T05:09:39.267Z,2.10
2023-03-12T05:12:06.416Z,5.57
2023-03-12T05:14:32.902Z,3.83
2023-03-12T05:16:59.391Z,2.63
2023-03-12T05:19:25.852Z,5.63
2023-03-12T05:21:52.312Z,4.93
2023-03-12T05:24:18.802Z,3.37
2023-03-12T05:26:45.274Z,5.83
2023-03-12T05:29:11.880Z,5.53
2023-03-12T05:31:38.449Z,5.13
2023-03-12T05:34:05.029Z,5.47
2023-03-12T05:36:31.524Z,4.97
2023-03-12T05:38:58.159Z,6.60
2023-03-12T05:41:28.212Z,7.57
2023-03-12T05:43:56.544Z,5.57
2023-03-12T05:46:26.099Z,11.13
2023-03-12T05:48:53.031Z,3.63
2023-03-12T05:51:20.363Z,5.33
2023-03-12T05:53:47.056Z,5.70
2023-03-12T05:56:16.883Z,6.63
2023-03-12T05:58:44.589Z,8.30
2023-03-12T06:01:22.113Z,4.57
2023-03-12T06:03:49.255Z,5.77
2023-03-12T06:06:16.148Z,2.50
2023-03-12T06:08:43.245Z,5.60
2023-03-12T06:11:10.769Z,3.97
2023-03-12T06:13:37.404Z,6.30
2023-03-12T06:16:06.619Z,5.60
2023-03-12T06:18:34.543Z,3.67
2023-03-12T06:21:20.548Z,4.37
2023-03-12T06:23:48.616Z,3.67
2023-03-12T06:26:16.208Z,5.43
2023-03-12T06:28:44.083Z,7.73
2023-03-12T06:31:10.660Z,6.53
2023-03-12T06:33:37.783Z,5.80
2023-03-12T06:36:08.780Z,6.87
2023-03-12T06:38:35.898Z,5.23
2023-03-12T06:41:07.556Z,7.30
2023-03-12T06:43:36.559Z,8.33
2023-03-12T06:46:05.842Z,13.57
2023-03-12T06:48:36.033Z,7.50
2023-03-12T06:51:04.180Z,8.17
2023-03-12T06:53:31.620Z,11.80
2023-03-12T06:55:58.578Z,7.80
2023-03-12T06:58:25.339Z,7.70
2023-03-12T07:00:53.408Z,7.43
2023-03-12T07:03:20.474Z,10.27
2023-03-12T07:05:49.006Z,9.17
2023-03-12T07:08:17.953Z,9.60
2023-03-12T07:10:45.700Z,6.70
2023-03-12T07:13:12.489Z,8.93
2023-03-12T07:15:38.981Z,8.73
2023-03-12T07:18:07.868Z,8.30
2023-03-12T07:20:41.644Z,7.40
2023-03-12T07:23:08.739Z,8.50
2023-03-12T07:25:40.622Z,7.60
2023-03-12T07:28:08.460Z,11.37
2023-03-12T07:30:35.061Z,8.10
2023-03-12T07:33:08.576Z,8.17
2023-03-12T07:35:38.094Z,8.17
2023-03-12T07:38:06.355Z,8.47
2023-03-12T07:40:33.487Z,6.20
2023-03-12T07:43:00.221Z,8.50
2023-03-12T07:45:26.844Z,7.77
2023-03-12T07:47:53.409Z,8.57
2023-03-12T07:50:20.326Z,7.10
2023-03-12T07:52:47.117Z,4.63
2023-03-12T07:55:13.905Z,6.10
2023-03-12T07:57:40.589Z,4.37
2023-03-12T08:00:09.701Z,7.60
2023-03-12T08:02:36.806Z,5.07
2023-03-12T08:05:03.739Z,9.47
2023-03-12T08:07:31.709Z,7.70
2023-03-12T08:10:03.739Z,11.17
2023-03-12T08:12:30.464Z,7.80
2023-03-12T08:14:57.139Z,10.80
2023-03-12T08:17:23.690Z,5.90
2023-03-12T08:19:50.201Z,8.23
2023-03-12T08:22:16.755Z,6.13
2023-03-12T08:24:44.151Z,6.13
2023-03-12T08:27:11.635Z,6.50
2023-03-12T08:29:39.641Z,3.93
2023-03-12T08:32:07.438Z,5.27
2023-03-12T08:34:34.881Z,8.43
2023-03-12T08:37:02.181Z,7.33
2023-03-12T08:39:29.572Z,6.20
2023-03-12T08:41:56.059Z,4.97
2023-03-12T08:44:23.867Z,8.13
2023-03-12T08:46:51.826Z,7.00
2023-03-12T08:49:20.120Z,4.40
2023-03-12T08:51:46.997Z,9.63
2023-03-12T08:54:13.528Z,5.97
2023-03-12T08:56:43.053Z,4.30
2023-03-12T08:59:10.956Z,8.90
2023-03-12T09:01:39.812Z,5.80
2023-03-12T09:04:07.105Z,5.80
2023-03-12T09:06:34.704Z,5.27
2023-03-12T09:09:05.589Z,6.23
2023-03-12T09:11:33.712Z,6.93
2023-03-12T09:14:46.379Z,5.30
2023-03-12T09:17:29.769Z,7.97
2023-03-12T09:19:56.232Z,6.33
2023-03-12T09:22:22.728Z,5.23
2023-03-12T09:24:49.279Z,4.93
2023-03-12T09:27:15.758Z,6.23
2023-03-12T09:29:58.759Z,7.43
2023-03-12T09:32:26.798Z,8.47
2023-03-12T09:34:53.693Z,5.13
2023-03-12T09:37:22.390Z,7.80
2023-03-12T09:39:51.398Z,8.43
2023-03-12T09:42:44.890Z,6.37
2023-03-12T09:45:27.516Z,7.93
2023-03-12T09:48:02.330Z,9.90
2023-03-12T09:50:43.371Z,6.43
2023-03-12T09:53:40.442Z,5.93
2023-03-12T09:56:14.784Z,6.17
2023-03-12T09:58:47.372Z,8.57
2023-03-12T10:05:50.148Z,7.03
2023-03-12T10:09:48.612Z,4.50
2023-03-12T10:13:47.875Z,6.03
2023-03-12T10:17:06.754Z,5.00
2023-03-12T10:20:15.246Z,5.67
2023-03-12T10:26:55.594Z,5.23
2023-03-12T10:29:30.165Z,6.23
2023-03-12T10:32:30.215Z,8.87
2023-03-12T10:35:04.231Z,10.03
2023-03-12T10:37:43.007Z,9.13
2023-03-12T10:40:20.039Z,8.47
2023-03-12T10:42:47.734Z,7.63
2023-03-12T10:47:27.612Z,6.47
2023-03-12T10:49:54.197Z,5.80
2023-03-12T10:52:22.838Z,8.53
2023-03-12T10:54:52.840Z,5.87
2023-03-12T10:57:21.434Z,6.33
2023-03-12T10:59:50.557Z,5.30
2023-03-12T11:02:42.745Z,7.13
2023-03-12T11:05:29.676Z,9.57
2023-03-12T11:07:58.936Z,10.97
2023-03-12T11:10:45.964Z,7.03
2023-03-12T11:13:37.626Z,8.23
2023-03-12T11:16:30.131Z,8.23
2023-03-12T11:19:04.892Z,17.83
2023-03-12T11:21:37.422Z,9.40
2023-03-12T11:24:21.923Z,8.27
2023-03-12T11:27:06.749Z,6.77
2023-03-12T11:29:42.781Z,7.17
2023-03-12T11:33:03.304Z,6.00
2023-03-12T11:36:06.323Z,6.00
2023-03-12T11:38:56.333Z,6.80
2023-03-12T11:42:25.212Z,5.17
2023-03-12T11:45:28.828Z,9.50
2023-03-12T11:48:53.433Z,5.70
2023-03-12T11:53:28.186Z,6.97
2023-03-12T11:56:38.484Z,5.43
2023-03-12T12:01:55.837Z,10.70
2023-03-12T12:06:26.854Z,5.10
2023-03-12T12:09:17.640Z,5.03
2023-03-12T12:13:31.691Z,6.87
2023-03-12T12:17:01.414Z,5.63
2023-03-12T12:20:42.796Z,5.97
2023-03-12T12:28:59.943Z,6.10
2023-03-12T12:31:45.541Z,5.53
2023-03-12T12:34:51.200Z,4.93
2023-03-12T12:37:52.589Z,5.50
2023-03-12T12:40:44.439Z,5.83
2023-03-12T12:43:29.961Z,8.13
2023-03-12T12:46:16.395Z,4.97
2023-03-12T12:49:01.482Z,13.13
2023-03-12T12:51:39.903Z,8.47
2023-03-12T12:56:23.580Z,5.30
2023-03-12T12:59:49.755Z,7.50
2023-03-12T13:02:28.106Z,4.17
2023-03-12T13:04:58.685Z,8.30
2023-03-12T13:07:33.447Z,4.50
2023-03-12T13:10:06.377Z,6.20
2023-03-12T13:12:52.118Z,5.13
2023-03-12T13:15:39.315Z,6.70
2023-03-12T13:18:30.579Z,7.10
2023-03-12T13:22:50.329Z,8.33
2023-03-12T13:26:22.692Z,6.17
2023-03-12T13:31:48.491Z,5.70
2023-03-12T13:34:45.770Z,6.73
2023-03-12T13:37:47.952Z,5.77
2023-03-12T13:42:39.732Z,7.07
2023-03-12T13:45:30.999Z,5.27
2023-03-12T13:48:02.110Z,4.80
2023-03-12T13:50:31.951Z,5.30
2023-03-12T13:53:07.077Z,6.77
2023-03-12T13:55:36.843Z,4.30
2023-03-12T13:58:20.608Z,10.17
2023-03-12T14:01:23.633Z,7.37
2023-03-12T14:03:57.397Z,3.97
2023-03-12T14:06:29.704Z,5.33
2023-03-12T14:11:00.503Z,6.27
2023-03-12T14:16:50.797Z,5.03
2023-03-12T14:19:22.891Z,4.27
2023-03-12T14:21:52.184Z,9.37
2023-03-12T14:24:33.110Z,6.53
2023-03-12T14:27:03.776Z,5.13
2023-03-12T14:29:47.971Z,6.17
2023-03-12T14:32:22.134Z,5.83
2023-03-12T14:35:07.531Z,4.67
2023-03-12T14:37:50.688Z,5.40
2023-03-12T14:40:57.304Z,7.67
2023-03-12T14:43:37.190Z,5.77
2023-03-12T14:46:15.028Z,4.93
2023-03-12T14:48:41.606Z,4.90
2023-03-12T14:51:24.237Z,5.53
2023-03-12T14:53:52.418Z,6.73
2023-03-12T14:56:34.536Z,6.10
2023-03-12T14:59:30.582Z,5.70
2023-03-12T15:02:12.772Z,9.50
2023-03-12T15:04:40.706Z,8.30
2023-03-12T15:07:13.264Z,5.10
2023-03-12T15:09:45.511Z,6.97
2023-03-12T15:12:30.926Z,5.63
2023-03-12T15:15:07.622Z,4.53
2023-03-12T15:17:35.095Z,8.73
2023-03-12T15:20:08.474Z,5.23
2023-03-12T15:22:36.160Z,7.60
2023-03-12T15:25:22.454Z,8.00
2023-03-12T15:27:59.694Z,7.23
2023-03-12T15:30:28.679Z,6.87
2023-03-12T15:33:43.040Z,4.23
2023-03-12T15:36:32.701Z,5.03
2023-03-12T15:39:12.210Z,6.77
2023-03-12T15:41:48.861Z,7.90
2023-03-12T15:44:24.881Z,10.57
2023-03-12T15:47:10.788Z,4.80
2023-03-12T15:49:39.052Z,3.87
2023-03-12T15:52:34.471Z,6.80
2023-03-12T15:55:27.238Z,12.00
2023-03-12T15:57:56.251Z,8.27
2023-03-12T16:00:43.918Z,5.50
2023-03-12T16:03:19.276Z,7.73
2023-03-12T16:05:47.879Z,7.23
2023-03-12T16:08:20.972Z,7.93
2023-03-12T16:10:50.955Z,6.03
2023-03-12T16:13:21.203Z,5.53
2023-03-12T16:15:48.415Z,4.80
2023-03-12T16:18:19.117Z,7.20
2023-03-12T16:20:46.786Z,6.07
2023-03-12T16:23:14.005Z,4.30
2023-03-12T16:25:52.166Z,7.27
2023-03-12T16:28:21.644Z,5.93
2023-03-12T16:30:48.636Z,5.83
2023-03-12T16:33:21.875Z,10.50
2023-03-12T16:35:48.478Z,4.57
2023-03-12T16:38:15.352Z,6.80
2023-03-12T16:40:48.846Z,5.33
2023-03-12T16:43:28.424Z,4.87
2023-03-12T16:45:55.767Z,4.70
2023-03-12T16:48:23.771Z,4.50
2023-03-12T16:50:56.823Z,4.07
2023-03-12T16:53:24.534Z,4.63
2023-03-12T16:56:01.038Z,7.77
2023-03-12T16:58:29.525Z,7.20
2023-03-12T17:00:57.213Z,4.30
2023-03-12T17:03:37.098Z,4.27
2023-03-12T17:06:06.703Z,5.77
2023-03-12T17:08:35.151Z,9.83
2023-03-12T17:11:01.656Z,5.53
2023-03-12T17:13:29.243Z,11.53
2023-03-12T17:15:56.700Z,9.13
2023-03-12T17:18:23.839Z,6.27
2023-03-12T17:20:51.044Z,7.87
2023-03-12T17:23:18.433Z,4.07
2023-03-12T17:25:45.783Z,5.10
2023-03-12T17:28:14.509Z,5.70
2023-03-12T17:30:41.634Z,15.03
2023-03-12T17:33:14.988Z,14.37
2023-03-12T17:35:41.866Z,8.40
2023-03-12T17:38:09.489Z,4.37
2023-03-12T17:40:43.047Z,5.37
2023-03-12T17:43:09.847Z,15.87
2023-03-12T17:45:36.605Z,11.80
2023-03-12T17:48:03.473Z,13.33
2023-03-12T17:50:29.974Z,8.10
2023-03-12T17:52:56.431Z,8.73
2023-03-12T17:55:22.921Z,3.73
2023-03-12T17:57:49.704Z,8.53
2023-03-12T18:00:17.021Z,9.13
2023-03-12T18:02:43.845Z,7.27
2023-03-12T18:05:11.271Z,6.73
2023-03-12T18:07:38.026Z,6.50
2023-03-12T18:10:07.987Z,6.40
2023-03-12T18:12:37.131Z,11.83
2023-03-12T18:15:06.229Z,7.73
2023-03-12T18:17:32.730Z,8.43
2023-03-12T18:19:59.188Z,6.60
2023-03-12T18:22:25.675Z,9.73
2023-03-12T18:24:52.136Z,10.27
2023-03-12T18:27:18.638Z,6.90
2023-03-12T18:29:45.104Z,6.87
2023-03-12T18:32:11.556Z,8.33
2023-03-12T18:34:41.386Z,9.10
2023-03-12T18:37:08.067Z,9.23
2023-03-12T18:39:34.546Z,25.17
2023-03-12T18:42:01.067Z,16.87
2023-03-12T18:44:27.551Z,17.07
2023-03-12T18:46:54.241Z,13.00
2023-03-12T18:49:21.019Z,12.13
2023-03-12T18:51:52.625Z,8.93
2023-03-12T18:54:19.202Z,11.80
2023-03-12T18:56:46.010Z,14.57
2023-03-12T18:59:13.844Z,10.13
2023-03-12T19:01:41.889Z,10.67
2023-03-12T19:04:10.723Z,10.07
2023-03-12T19:06:49.823Z,8.40
2023-03-12T19:09:17.800Z,9.60
2023-03-12T19:11:47.165Z,10.23
2023-03-12T19:14:13.734Z,10.93
2023-03-12T19:16:40.340Z,17.87
2023-03-12T19:19:09.658Z,11.80
2023-03-12T19:21:36.135Z,16.07
2023-03-12T19:24:02.657Z,13.20
2023-03-12T19:26:29.121Z,11.30
2023-03-12T19:28:55.608Z,10.03
2023-03-12T19:31:22.083Z,12.80
2023-03-12T19:33:48.594Z,9.43
2023-03-12T19:36:15.080Z,11.80
2023-03-12T19:38:41.575Z,12.00
2023-03-12T19:41:08.558Z,12.10
2023-03-12T19:43:36.393Z,15.57
2023-03-12T19:46:03.691Z,13.93
2023-03-12T19:48:30.288Z,11.50
2023-03-12T19:50:56.822Z,12.13
2023-03-12T19:53:24.050Z,11.80
2023-03-12T19:55:51.232Z,10.80
2023-03-12T19:58:17.772Z,9.03
2023-03-12T20:00:44.414Z,11.67
2023-03-12T20:03:11.262Z,14.43
2023-03-12T20:05:37.949Z,13.63
2023-03-12T20:08:04.599Z,14.13
2023-03-12T20:10:31.643Z,14.60
2023-03-12T20:12:58.160Z,14.37
2023-03-12T20:15:24.721Z,9.63
2023-03-12T20:17:53.916Z,12.87
2023-03-12T20:20:20.409Z,10.50
2023-03-12T20:22:46.898Z,12.50
2023-03-12T20:25:13.624Z,11.13
2023-03-12T20:27:40.145Z,8.10
2023-03-12T20:30:08.059Z,8.60
2023-03-12T20:32:34.653Z,8.93
2023-03-12T20:35:01.148Z,35.90
2023-03-12T20:37:27.679Z,32.47
2023-03-12T20:39:54.167Z,16.30
2023-03-12T20:42:20.663Z,10.27
2023-03-12T20:44:47.150Z,11.63
2023-03-12T20:47:13.607Z,9.20
2023-03-12T20:49:40.090Z,9.43
2023-03-12T20:52:06.540Z,7.10
2023-03-12T20:54:33.041Z,10.13
2023-03-12T20:56:59.501Z,9.60
2023-03-12T20:59:25.975Z,9.20
2023-03-12T21:01:52.444Z,12.57
2023-03-12T21:04:18.979Z,9.80
2023-03-12T21:06:46.811Z,9.53
2023-03-12T21:09:13.305Z,38.87
2023-03-12T21:11:39.766Z,24.53
2023-03-12T21:14:06.290Z,13.10
2023-03-12T21:16:32.822Z,9.80
2023-03-12T21:19:00.292Z,8.23
2023-03-12T21:21:27.665Z,11.67
2023-03-12T21:23:54.247Z,10.27
2023-03-12T21:26:21.178Z,9.70
2023-03-12T21:28:47.660Z,10.53
2023-03-12T21:31:16.860Z,12.33
2023-03-12T21:33:43.500Z,7.83
2023-03-12T21:36:13.422Z,13.73
2023-03-12T21:38:42.179Z,22.97
2023-03-12T21:41:12.198Z,24.10
2023-03-12T21:43:39.551Z,15.63
2023-03-12T21:46:09.463Z,14.20
2023-03-12T21:48:36.539Z,8.13
2023-03-12T21:51:06.143Z,9.23
2023-03-12T21:53:33.249Z,17.37
2023-03-12T21:56:01.392Z,11.70
2023-03-12T21:58:29.524Z,12.00
2023-03-12T22:01:09.795Z,11.03
2023-03-12T22:03:37.636Z,8.37
2023-03-12T22:06:05.396Z,8.70
2023-03-12T22:08:32.603Z,10.37
2023-03-12T22:10:59.368Z,10.80
2023-03-12T22:13:26.023Z,11.83
2023-03-12T22:15:59.373Z,10.63
2023-03-12T22:18:27.791Z,10.93
2023-03-12T22:21:00.966Z,12.47
2023-03-12T22:23:28.486Z,8.70
2023-03-12T22:25:55.402Z,10.00
2023-03-12T22:28:25.280Z,9.77
2023-03-12T22:31:05.723Z,9.13
2023-03-12T22:33:35.010Z,7.73
2023-03-12T22:36:07.325Z,6.53
2023-03-12T22:38:38.583Z,11.27
2023-03-12T22:41:18.636Z,8.90
2023-03-12T22:43:47.440Z,7.40
2023-03-12T22:46:15.775Z,9.03
2023-03-12T22:48:44.093Z,9.43
2023-03-12T22:51:10.922Z,8.70
2023-03-12T22:53:37.836Z,8.60
2023-03-12T22:56:08.723Z,13.40
2023-03-12T22:58:35.751Z,7.30
2023-03-12T23:01:22.851Z,7.73
2023-03-12T23:03:50.811Z,7.77
2023-03-12T23:06:26.982Z,10.40
2023-03-12T23:08:56.379Z,8.17
2023-03-12T23:11:25.156Z,12.40
2023-03-12T23:13:53.223Z,9.80
2023-03-12T23:16:23.717Z,10.90
2023-03-12T23:18:50.558Z,9.50
2023-03-12T23:21:22.893Z,14.30
2023-03-12T23:23:50.694Z,18.93
2023-03-12T23:26:25.667Z,14.97
2023-03-12T23:28:58.176Z,14.33
2023-03-12T23:31:26.847Z,10.77
2023-03-12T23:33:53.818Z,10.63
2023-03-12T23:36:22.831Z,7.90
2023-03-12T23:38:50.207Z,6.47
2023-03-12T23:41:30.501Z,9.47
2023-03-12T23:43:57.921Z,7.97
2023-03-12T23:46:26.450Z,9.40
2023-03-12T23:48:54.005Z,13.87
2023-03-12T23:51:27.573Z,9.30
2023-03-12T23:54:04.459Z,11.10
2023-03-12T23:56:35.479Z,8.47
2023-03-12T23:59:03.428Z,7.67
